sensor_id;sensor_type;location;lat;lon;timestamp;P1;durP1;ratioP1;P2;durP2;ratioP2
22318;SDS011;11327;52.334;9.506;2023-11-21T00:03:21;18.98;;;8.33;;
22318;SDS011;11327;52.334;9.506;2023-11-21T00:06:43;15.95;;;7.97;;
22318;SDS011;11327;52.334;9.506;2023-11-21T00:10:06;17.37;;;8.05;;
22318;SDS011;11327;52.334;9.506;2023-11-21T00:13:28;19.95;;;8.90;;
22318;SDS011;11327;52.334;9.506;2023-11-21T00:16:49;18.37;;;8.90;;
22318;SDS011;11327;52.334;9.506;2023-11-21T00:20:10;18.23;;;8.63;;
22318;SDS011;11327;52.334;9.506;2023-11-21T00:23:32;20.82;;;9.10;;
22318;SDS011;11327;52.334;9.506;2023-11-21T00:26:53;23.55;;;9.38;;
22318;SDS011;11327;52.334;9.506;2023-11-21T00:30:14;23.40;;;9.08;;
22318;SDS011;11327;52.334;9.506;2023-11-21T00:33:35;17.20;;;8.60;;
22318;SDS011;11327;52.334;9.506;2023-11-21T00:36:56;20.88;;;9.45;;
22318;SDS011;11327;52.334;9.506;2023-11-21T00:40:16;23.98;;;9.83;;
22318;SDS011;11327;52.334;9.506;2023-11-21T00:43:39;20.80;;;9.40;;
22318;SDS011;11327;52.334;9.506;2023-11-21T00:47:00;25.95;;;10.40;;
22318;SDS011;11327;52.334;9.506;2023-11-21T00:50:21;20.60;;;10.45;;
22318;SDS011;11327;52.334;9.506;2023-11-21T00:53:42;25.57;;;10.03;;
22318;SDS011;11327;52.334;9.506;2023-11-21T00:57:02;21.00;;;10.10;;
22318;SDS011;11327;52.334;9.506;2023-11-21T01:00:23;22.02;;;10.65;;
22318;SDS011;11327;52.334;9.506;2023-11-21T01:03:47;21.70;;;10.25;;
22318;SDS011;11327;52.334;9.506;2023-11-21T01:07:09;22.93;;;11.15;;
22318;SDS011;11327;52.334;9.506;2023-11-21T01:10:29;21.65;;;10.40;;
22318;SDS011;11327;52.334;9.506;2023-11-21T01:13:50;26.20;;;11.60;;
22318;SDS011;11327;52.334;9.506;2023-11-21T01:17:11;26.73;;;11.85;;
22318;SDS011;11327;52.334;9.506;2023-11-21T01:20:32;24.77;;;10.78;;
22318;SDS011;11327;52.334;9.506;2023-11-21T01:23:52;23.73;;;11.35;;
22318;SDS011;11327;52.334;9.506;2023-11-21T01:27:13;21.23;;;10.23;;
22318;SDS011;11327;52.334;9.506;2023-11-21T01:30:34;22.45;;;11.28;;
22318;SDS011;11327;52.334;9.506;2023-11-21T01:33:56;27.87;;;11.60;;
22318;SDS011;11327;52.334;9.506;2023-11-21T01:37:17;22.30;;;11.35;;
22318;SDS011;11327;52.334;9.506;2023-11-21T01:40:38;25.10;;;11.68;;
22318;SDS011;11327;52.334;9.506;2023-11-21T01:43:58;24.57;;;12.33;;
22318;SDS011;11327;52.334;9.506;2023-11-21T01:47:19;24.90;;;11.83;;
22318;SDS011;11327;52.334;9.506;2023-11-21T01:50:41;27.82;;;13.53;;
22318;SDS011;11327;52.334;9.506;2023-11-21T01:54:03;25.50;;;12.45;;
22318;SDS011;11327;52.334;9.506;2023-11-21T01:57:25;23.10;;;11.83;;
22318;SDS011;11327;52.334;9.506;2023-11-21T02:00:46;27.58;;;13.30;;
22318;SDS011;11327;52.334;9.506;2023-11-21T02:04:06;26.15;;;12.75;;
22318;SDS011;11327;52.334;9.506;2023-11-21T02:07:28;28.42;;;13.85;;
22318;SDS011;11327;52.334;9.506;2023-11-21T02:10:49;30.77;;;14.60;;
22318;SDS011;11327;52.334;9.506;2023-11-21T02:14:10;36.55;;;15.53;;
22318;SDS011;11327;52.334;9.506;2023-11-21T02:17:31;34.25;;;16.12;;
22318;SDS011;11327;52.334;9.506;2023-11-21T02:20:52;31.12;;;15.72;;
22318;SDS011;11327;52.334;9.506;2023-11-21T02:24:13;32.30;;;15.70;;
22318;SDS011;11327;52.334;9.506;2023-11-21T02:27:34;32.42;;;16.82;;
22318;SDS011;11327;52.334;9.506;2023-11-21T02:30:55;36.30;;;17.60;;
22318;SDS011;11327;52.334;9.506;2023-11-21T02:34:17;35.73;;;17.37;;
22318;SDS011;11327;52.334;9.506;2023-11-21T02:37:38;37.50;;;18.67;;
22318;SDS011;11327;52.334;9.506;2023-11-21T02:40:59;37.15;;;18.60;;
22318;SDS011;11327;52.334;9.506;2023-11-21T02:44:20;37.65;;;18.48;;
22318;SDS011;11327;52.334;9.506;2023-11-21T02:47:40;36.23;;;18.80;;
22318;SDS011;11327;52.334;9.506;2023-11-21T02:51:01;39.10;;;18.55;;
22318;SDS011;11327;52.334;9.506;2023-11-21T02:54:23;41.05;;;19.02;;
22318;SDS011;11327;52.334;9.506;2023-11-21T02:57:43;38.73;;;18.23;;
22318;SDS011;11327;52.334;9.506;2023-11-21T03:01:04;40.15;;;18.23;;
22318;SDS011;11327;52.334;9.506;2023-11-21T03:04:26;36.15;;;17.57;;
22318;SDS011;11327;52.334;9.506;2023-11-21T03:07:46;35.90;;;18.20;;
22318;SDS011;11327;52.334;9.506;2023-11-21T03:11:07;46.18;;;18.90;;
22318;SDS011;11327;52.334;9.506;2023-11-21T03:14:28;44.70;;;19.02;;
22318;SDS011;11327;52.334;9.506;2023-11-21T03:17:49;39.08;;;18.98;;
22318;SDS011;11327;52.334;9.506;2023-11-21T03:21:09;42.03;;;18.60;;
22318;SDS011;11327;52.334;9.506;2023-11-21T03:24:30;37.17;;;19.48;;
22318;SDS011;11327;52.334;9.506;2023-11-21T03:27:51;36.17;;;17.60;;
22318;SDS011;11327;52.334;9.506;2023-11-21T03:31:12;37.80;;;18.15;;
22318;SDS011;11327;52.334;9.506;2023-11-21T03:34:32;46.58;;;19.87;;
22318;SDS011;11327;52.334;9.506;2023-11-21T03:37:53;41.05;;;18.87;;
22318;SDS011;11327;52.334;9.506;2023-11-21T03:41:14;39.75;;;19.02;;
22318;SDS011;11327;52.334;9.506;2023-11-21T03:44:35;42.95;;;18.45;;
22318;SDS011;11327;52.334;9.506;2023-11-21T03:47:55;37.80;;;17.77;;
22318;SDS011;11327;52.334;9.506;2023-11-21T03:51:16;40.00;;;18.50;;
22318;SDS011;11327;52.334;9.506;2023-11-21T03:54:37;45.92;;;19.30;;
22318;SDS011;11327;52.334;9.506;2023-11-21T03:57:58;42.38;;;18.62;;
22318;SDS011;11327;52.334;9.506;2023-11-21T04:01:23;47.88;;;19.80;;
22318;SDS011;11327;52.334;9.506;2023-11-21T04:04:42;41.65;;;17.82;;
22318;SDS011;11327;52.334;9.506;2023-11-21T04:08:03;40.52;;;18.73;;
22318;SDS011;11327;52.334;9.506;2023-11-21T04:11:24;42.27;;;18.67;;
22318;SDS011;11327;52.334;9.506;2023-11-21T04:14:44;42.38;;;18.17;;
22318;SDS011;11327;52.334;9.506;2023-11-21T04:18:06;41.98;;;17.62;;
22318;SDS011;11327;52.334;9.506;2023-11-21T04:21:27;41.18;;;19.65;;
22318;SDS011;11327;52.334;9.506;2023-11-21T04:24:47;43.85;;;20.12;;
22318;SDS011;11327;52.334;9.506;2023-11-21T04:28:09;40.65;;;18.60;;
22318;SDS011;11327;52.334;9.506;2023-11-21T04:31:30;42.73;;;19.70;;
22318;SDS011;11327;52.334;9.506;2023-11-21T04:34:51;42.53;;;19.60;;
22318;SDS011;11327;52.334;9.506;2023-11-21T04:38:11;45.85;;;20.00;;
22318;SDS011;11327;52.334;9.506;2023-11-21T04:41:32;45.30;;;19.37;;
22318;SDS011;11327;52.334;9.506;2023-11-21T04:44:53;42.27;;;19.65;;
22318;SDS011;11327;52.334;9.506;2023-11-21T04:48:13;44.42;;;19.32;;
22318;SDS011;11327;52.334;9.506;2023-11-21T04:51:34;39.88;;;18.70;;
22318;SDS011;11327;52.334;9.506;2023-11-21T04:54:55;40.95;;;18.02;;
22318;SDS011;11327;52.334;9.506;2023-11-21T04:58:17;42.65;;;17.92;;
22318;SDS011;11327;52.334;9.506;2023-11-21T05:01:39;40.40;;;17.60;;
22318;SDS011;11327;52.334;9.506;2023-11-21T05:05:00;37.20;;;16.65;;
22318;SDS011;11327;52.334;9.506;2023-11-21T05:08:21;37.25;;;16.80;;
22318;SDS011;11327;52.334;9.506;2023-11-21T05:11:42;35.10;;;15.80;;
22318;SDS011;11327;52.334;9.506;2023-11-21T05:15:03;42.85;;;17.62;;
22318;SDS011;11327;52.334;9.506;2023-11-21T05:18:27;37.13;;;16.73;;
22318;SDS011;11327;52.334;9.506;2023-11-21T05:21:47;37.67;;;15.78;;
22318;SDS011;11327;52.334;9.506;2023-11-21T05:25:08;43.50;;;17.17;;
22318;SDS011;11327;52.334;9.506;2023-11-21T05:28:29;42.00;;;18.10;;
22318;SDS011;11327;52.334;9.506;2023-11-21T05:31:50;37.67;;;15.95;;
22318;SDS011;11327;52.334;9.506;2023-11-21T05:35:11;36.90;;;15.20;;
22318;SDS011;11327;52.334;9.506;2023-11-21T05:38:38;36.20;;;16.62;;
22318;SDS011;11327;52.334;9.506;2023-11-21T05:41:59;32.15;;;14.83;;
22318;SDS011;11327;52.334;9.506;2023-11-21T05:45:20;32.17;;;15.08;;
22318;SDS011;11327;52.334;9.506;2023-11-21T05:48:41;33.53;;;15.70;;
22318;SDS011;11327;52.334;9.506;2023-11-21T05:52:02;32.78;;;14.75;;
22318;SDS011;11327;52.334;9.506;2023-11-21T05:55:23;31.15;;;14.33;;
22318;SDS011;11327;52.334;9.506;2023-11-21T05:58:46;28.85;;;13.65;;
22318;SDS011;11327;52.334;9.506;2023-11-21T06:02:06;28.00;;;12.40;;
22318;SDS011;11327;52.334;9.506;2023-11-21T06:05:28;26.75;;;11.93;;
22318;SDS011;11327;52.334;9.506;2023-11-21T06:08:49;26.30;;;12.07;;
22318;SDS011;11327;52.334;9.506;2023-11-21T06:12:09;23.32;;;10.90;;
22318;SDS011;11327;52.334;9.506;2023-11-21T06:15:30;25.97;;;11.78;;
22318;SDS011;11327;52.334;9.506;2023-11-21T06:18:51;25.20;;;11.50;;
22318;SDS011;11327;52.334;9.506;2023-11-21T06:22:11;26.40;;;12.13;;
22318;SDS011;11327;52.334;9.506;2023-11-21T06:25:32;28.57;;;12.90;;
22318;SDS011;11327;52.334;9.506;2023-11-21T06:28:55;27.93;;;13.20;;
22318;SDS011;11327;52.334;9.506;2023-11-21T06:32:17;30.52;;;12.73;;
22318;SDS011;11327;52.334;9.506;2023-11-21T06:35:38;25.23;;;12.05;;
22318;SDS011;11327;52.334;9.506;2023-11-21T06:38:58;25.15;;;11.53;;
22318;SDS011;11327;52.334;9.506;2023-11-21T06:42:19;23.70;;;10.88;;
22318;SDS011;11327;52.334;9.506;2023-11-21T06:45:41;23.02;;;10.58;;
22318;SDS011;11327;52.334;9.506;2023-11-21T06:49:01;22.58;;;10.85;;
22318;SDS011;11327;52.334;9.506;2023-11-21T06:52:22;22.95;;;10.70;;
22318;SDS011;11327;52.334;9.506;2023-11-21T06:55:43;22.22;;;11.00;;
22318;SDS011;11327;52.334;9.506;2023-11-21T06:59:04;22.75;;;11.43;;
22318;SDS011;11327;52.334;9.506;2023-11-21T07:02:26;22.00;;;11.33;;
22318;SDS011;11327;52.334;9.506;2023-11-21T07:05:46;18.57;;;9.73;;
22318;SDS011;11327;52.334;9.506;2023-11-21T07:09:07;18.60;;;9.65;;
22318;SDS011;11327;52.334;9.506;2023-11-21T07:12:31;18.45;;;9.58;;
22318;SDS011;11327;52.334;9.506;2023-11-21T07:15:52;17.92;;;9.28;;
22318;SDS011;11327;52.334;9.506;2023-11-21T07:19:13;16.02;;;9.18;;
22318;SDS011;11327;52.334;9.506;2023-11-21T07:22:34;22.82;;;10.00;;
22318;SDS011;11327;52.334;9.506;2023-11-21T07:25:54;17.32;;;9.55;;
22318;SDS011;11327;52.334;9.506;2023-11-21T07:29:15;11.75;;;6.83;;
22318;SDS011;11327;52.334;9.506;2023-11-21T07:32:36;7.72;;;5.10;;
22318;SDS011;11327;52.334;9.506;2023-11-21T07:35:57;8.50;;;4.65;;
22318;SDS011;11327;52.334;9.506;2023-11-21T07:39:18;6.25;;;3.85;;
22318;SDS011;11327;52.334;9.506;2023-11-21T07:42:39;5.17;;;3.50;;
22318;SDS011;11327;52.334;9.506;2023-11-21T07:46:00;6.00;;;3.87;;
22318;SDS011;11327;52.334;9.506;2023-11-21T07:49:24;6.42;;;3.83;;
22318;SDS011;11327;52.334;9.506;2023-11-21T07:52:47;6.37;;;4.00;;
22318;SDS011;11327;52.334;9.506;2023-11-21T07:56:08;7.28;;;4.62;;
22318;SDS011;11327;52.334;9.506;2023-11-21T07:59:29;8.23;;;5.10;;
22318;SDS011;11327;52.334;9.506;2023-11-21T08:02:50;9.10;;;4.87;;
22318;SDS011;11327;52.334;9.506;2023-11-21T08:06:11;8.08;;;5.00;;
22318;SDS011;11327;52.334;9.506;2023-11-21T08:09:32;7.53;;;5.40;;
22318;SDS011;11327;52.334;9.506;2023-11-21T08:12:54;12.40;;;6.28;;
22318;SDS011;11327;52.334;9.506;2023-11-21T08:16:15;10.20;;;6.50;;
22318;SDS011;11327;52.334;9.506;2023-11-21T08:19:37;11.12;;;7.15;;
22318;SDS011;11327;52.334;9.506;2023-11-21T08:22:57;10.58;;;6.78;;
22318;SDS011;11327;52.334;9.506;2023-11-21T08:26:18;11.95;;;7.33;;
22318;SDS011;11327;52.334;9.506;2023-11-21T08:29:39;10.98;;;7.60;;
22318;SDS011;11327;52.334;9.506;2023-11-21T08:33:00;12.20;;;7.87;;
22318;SDS011;11327;52.334;9.506;2023-11-21T08:36:21;13.60;;;8.50;;
22318;SDS011;11327;52.334;9.506;2023-11-21T08:39:44;14.53;;;9.33;;
22318;SDS011;11327;52.334;9.506;2023-11-21T08:43:05;16.82;;;10.63;;
22318;SDS011;11327;52.334;9.506;2023-11-21T08:46:25;14.95;;;9.98;;
22318;SDS011;11327;52.334;9.506;2023-11-21T08:49:46;15.65;;;10.45;;
22318;SDS011;11327;52.334;9.506;2023-11-21T08:53:07;19.27;;;10.98;;
22318;SDS011;11327;52.334;9.506;2023-11-21T08:56:28;18.50;;;10.85;;
22318;SDS011;11327;52.334;9.506;2023-11-21T08:59:49;16.60;;;11.25;;
22318;SDS011;11327;52.334;9.506;2023-11-21T09:03:12;18.92;;;11.73;;
22318;SDS011;11327;52.334;9.506;2023-11-21T09:06:33;18.48;;;11.48;;
22318;SDS011;11327;52.334;9.506;2023-11-21T09:09:55;17.10;;;10.82;;
22318;SDS011;11327;52.334;9.506;2023-11-21T09:13:17;16.73;;;10.95;;
22318;SDS011;11327;52.334;9.506;2023-11-21T09:16:38;16.95;;;10.72;;
22318;SDS011;11327;52.334;9.506;2023-11-21T09:19:59;17.60;;;10.55;;
22318;SDS011;11327;52.334;9.506;2023-11-21T09:23:20;14.95;;;9.98;;
22318;SDS011;11327;52.334;9.506;2023-11-21T09:26:41;14.50;;;9.78;;
22318;SDS011;11327;52.334;9.506;2023-11-21T09:30:02;14.70;;;9.88;;
22318;SDS011;11327;52.334;9.506;2023-11-21T09:33:25;14.73;;;9.60;;
22318;SDS011;11327;52.334;9.506;2023-11-21T09:36:45;17.12;;;11.03;;
22318;SDS011;11327;52.334;9.506;2023-11-21T09:40:08;14.58;;;9.60;;
22318;SDS011;11327;52.334;9.506;2023-11-21T09:43:32;12.70;;;9.10;;
22318;SDS011;11327;52.334;9.506;2023-11-21T09:46:54;13.78;;;9.73;;
22318;SDS011;11327;52.334;9.506;2023-11-21T09:50:18;14.53;;;9.85;;
22318;SDS011;11327;52.334;9.506;2023-11-21T09:53:41;15.18;;;9.68;;
22318;SDS011;11327;52.334;9.506;2023-11-21T09:57:05;12.65;;;8.53;;
22318;SDS011;11327;52.334;9.506;2023-11-21T10:00:26;13.80;;;9.30;;
22318;SDS011;11327;52.334;9.506;2023-11-21T10:03:47;12.53;;;8.85;;
22318;SDS011;11327;52.334;9.506;2023-11-21T10:07:08;11.55;;;8.00;;
22318;SDS011;11327;52.334;9.506;2023-11-21T10:10:30;12.13;;;8.38;;
22318;SDS011;11327;52.334;9.506;2023-11-21T10:13:53;11.40;;;7.62;;
22318;SDS011;11327;52.334;9.506;2023-11-21T10:17:15;11.83;;;7.65;;
22318;SDS011;11327;52.334;9.506;2023-11-21T10:20:38;10.78;;;7.22;;
22318;SDS011;11327;52.334;9.506;2023-11-21T10:23:59;11.38;;;7.55;;
22318;SDS011;11327;52.334;9.506;2023-11-21T10:27:20;10.72;;;7.00;;
22318;SDS011;11327;52.334;9.506;2023-11-21T10:30:40;10.45;;;7.35;;
22318;SDS011;11327;52.334;9.506;2023-11-21T10:34:17;11.83;;;7.65;;
22318;SDS011;11327;52.334;9.506;2023-11-21T10:37:39;12.05;;;7.95;;
22318;SDS011;11327;52.334;9.506;2023-11-21T10:41:00;11.83;;;7.55;;
22318;SDS011;11327;52.334;9.506;2023-11-21T10:44:21;9.83;;;6.80;;
22318;SDS011;11327;52.334;9.506;2023-11-21T10:47:44;9.88;;;6.60;;
22318;SDS011;11327;52.334;9.506;2023-11-21T10:51:08;9.88;;;7.25;;
22318;SDS011;11327;52.334;9.506;2023-11-21T10:54:29;11.75;;;7.92;;
22318;SDS011;11327;52.334;9.506;2023-11-21T10:57:55;11.88;;;7.58;;
22318;SDS011;11327;52.334;9.506;2023-11-21T11:01:14;10.68;;;7.90;;
22318;SDS011;11327;52.334;9.506;2023-11-21T11:04:38;12.23;;;7.97;;
22318;SDS011;11327;52.334;9.506;2023-11-21T11:08:00;10.48;;;6.85;;
22318;SDS011;11327;52.334;9.506;2023-11-21T11:11:24;7.87;;;5.90;;
22318;SDS011;11327;52.334;9.506;2023-11-21T11:14:45;9.13;;;6.72;;
22318;SDS011;11327;52.334;9.506;2023-11-21T11:18:08;9.80;;;6.22;;
22318;SDS011;11327;52.334;9.506;2023-11-21T11:25:25;9.05;;;6.78;;
22318;SDS011;11327;52.334;9.506;2023-11-21T11:28:51;9.78;;;6.83;;
22318;SDS011;11327;52.334;9.506;2023-11-21T11:32:22;9.20;;;6.25;;
22318;SDS011;11327;52.334;9.506;2023-11-21T11:39:54;9.35;;;6.60;;
22318;SDS011;11327;52.334;9.506;2023-11-21T11:43:22;9.00;;;6.35;;
22318;SDS011;11327;52.334;9.506;2023-11-21T11:46:41;8.25;;;6.42;;
22318;SDS011;11327;52.334;9.506;2023-11-21T11:50:09;9.98;;;6.83;;
22318;SDS011;11327;52.334;9.506;2023-11-21T11:53:44;8.98;;;6.62;;
22318;SDS011;11327;52.334;9.506;2023-11-21T11:57:03;9.20;;;6.20;;
22318;SDS011;11327;52.334;9.506;2023-11-21T12:07:54;9.45;;;6.45;;
22318;SDS011;11327;52.334;9.506;2023-11-21T12:11:17;9.83;;;5.90;;
22318;SDS011;11327;52.334;9.506;2023-11-21T12:14:38;8.13;;;6.10;;
22318;SDS011;11327;52.334;9.506;2023-11-21T12:17:59;6.60;;;5.20;;
22318;SDS011;11327;52.334;9.506;2023-11-21T12:21:20;7.17;;;5.60;;
22318;SDS011;11327;52.334;9.506;2023-11-21T12:24:41;8.28;;;5.50;;
22318;SDS011;11327;52.334;9.506;2023-11-21T12:28:02;6.15;;;5.10;;
22318;SDS011;11327;52.334;9.506;2023-11-21T12:31:23;7.87;;;5.60;;
22318;SDS011;11327;52.334;9.506;2023-11-21T12:34:45;8.75;;;6.25;;
22318;SDS011;11327;52.334;9.506;2023-11-21T12:38:06;8.50;;;6.60;;
22318;SDS011;11327;52.334;9.506;2023-11-21T12:41:28;8.33;;;5.95;;
22318;SDS011;11327;52.334;9.506;2023-11-21T12:45:05;8.43;;;5.55;;
22318;SDS011;11327;52.334;9.506;2023-11-21T12:48:34;9.05;;;5.90;;
22318;SDS011;11327;52.334;9.506;2023-11-21T12:51:56;7.12;;;5.45;;
22318;SDS011;11327;52.334;9.506;2023-11-21T12:55:17;7.28;;;5.62;;
22318;SDS011;11327;52.334;9.506;2023-11-21T12:58:43;8.78;;;5.70;;
22318;SDS011;11327;52.334;9.506;2023-11-21T13:02:07;8.00;;;5.60;;
22318;SDS011;11327;52.334;9.506;2023-11-21T13:05:30;7.05;;;5.17;;
22318;SDS011;11327;52.334;9.506;2023-11-21T13:08:54;8.33;;;5.60;;
22318;SDS011;11327;52.334;9.506;2023-11-21T13:12:17;6.70;;;5.30;;
22318;SDS011;11327;52.334;9.506;2023-11-21T13:15:39;7.03;;;5.33;;
22318;SDS011;11327;52.334;9.506;2023-11-21T13:19:03;7.80;;;5.75;;
22318;SDS011;11327;52.334;9.506;2023-11-21T13:22:24;7.40;;;5.35;;
22318;SDS011;11327;52.334;9.506;2023-11-21T13:25:45;7.65;;;5.25;;
22318;SDS011;11327;52.334;9.506;2023-11-21T13:29:09;11.85;;;8.60;;
22318;SDS011;11327;52.334;9.506;2023-11-21T13:32:31;29.77;;;18.12;;
22318;SDS011;11327;52.334;9.506;2023-11-21T13:35:52;19.67;;;12.80;;
22318;SDS011;11327;52.334;9.506;2023-11-21T13:39:13;26.77;;;15.98;;
22318;SDS011;11327;52.334;9.506;2023-11-21T13:42:36;19.57;;;12.68;;
22318;SDS011;11327;52.334;9.506;2023-11-21T13:45:57;33.88;;;21.20;;
22318;SDS011;11327;52.334;9.506;2023-11-21T13:49:22;33.28;;;21.23;;
22318;SDS011;11327;52.334;9.506;2023-11-21T13:52:43;32.45;;;21.00;;
22318;SDS011;11327;52.334;9.506;2023-11-21T13:56:04;25.85;;;17.37;;
22318;SDS011;11327;52.334;9.506;2023-11-21T13:59:25;10.20;;;6.87;;
22318;SDS011;11327;52.334;9.506;2023-11-21T14:02:48;6.20;;;5.12;;
22318;SDS011;11327;52.334;9.506;2023-11-21T14:06:09;7.83;;;5.00;;
22318;SDS011;11327;52.334;9.506;2023-11-21T14:09:31;8.60;;;5.95;;
22318;SDS011;11327;52.334;9.506;2023-11-21T14:12:57;7.30;;;5.17;;
22318;SDS011;11327;52.334;9.506;2023-11-21T14:16:18;6.75;;;4.47;;
22318;SDS011;11327;52.334;9.506;2023-11-21T14:19:39;7.65;;;5.05;;
22318;SDS011;11327;52.334;9.506;2023-11-21T14:23:00;5.90;;;4.80;;
22318;SDS011;11327;52.334;9.506;2023-11-21T14:26:21;6.70;;;5.08;;
22318;SDS011;11327;52.334;9.506;2023-11-21T14:29:44;6.15;;;4.67;;
22318;SDS011;11327;52.334;9.506;2023-11-21T14:33:06;8.10;;;4.65;;
22318;SDS011;11327;52.334;9.506;2023-11-21T14:36:28;7.40;;;4.33;;
22318;SDS011;11327;52.334;9.506;2023-11-21T14:39:49;6.33;;;4.50;;
22318;SDS011;11327;52.334;9.506;2023-11-21T14:43:10;7.42;;;4.95;;
22318;SDS011;11327;52.334;9.506;2023-11-21T14:46:30;7.83;;;5.55;;
22318;SDS011;11327;52.334;9.506;2023-11-21T14:49:51;8.25;;;6.10;;
22318;SDS011;11327;52.334;9.506;2023-11-21T14:53:16;7.70;;;5.90;;
22318;SDS011;11327;52.334;9.506;2023-11-21T14:56:39;6.80;;;5.60;;
22318;SDS011;11327;52.334;9.506;2023-11-21T15:00:02;8.50;;;6.72;;
22318;SDS011;11327;52.334;9.506;2023-11-21T15:03:25;7.08;;;5.87;;
22318;SDS011;11327;52.334;9.506;2023-11-21T15:06:48;6.70;;;5.53;;
22318;SDS011;11327;52.334;9.506;2023-11-21T15:10:10;7.15;;;5.28;;
22318;SDS011;11327;52.334;9.506;2023-11-21T15:13:32;6.92;;;5.22;;
22318;SDS011;11327;52.334;9.506;2023-11-21T15:16:53;8.63;;;5.42;;
22318;SDS011;11327;52.334;9.506;2023-11-21T15:20:16;6.08;;;4.62;;
22318;SDS011;11327;52.334;9.506;2023-11-21T15:23:38;5.20;;;4.17;;
22318;SDS011;11327;52.334;9.506;2023-11-21T15:27:01;5.42;;;4.25;;
22318;SDS011;11327;52.334;9.506;2023-11-21T15:30:23;6.42;;;4.17;;
22318;SDS011;11327;52.334;9.506;2023-11-21T15:33:45;5.45;;;4.62;;
22318;SDS011;11327;52.334;9.506;2023-11-21T15:37:07;7.67;;;5.45;;
22318;SDS011;11327;52.334;9.506;2023-11-21T15:40:30;7.80;;;6.83;;
22318;SDS011;11327;52.334;9.506;2023-11-21T15:43:52;8.85;;;6.70;;
22318;SDS011;11327;52.334;9.506;2023-11-21T15:47:12;6.92;;;5.58;;
22318;SDS011;11327;52.334;9.506;2023-11-21T15:50:33;10.15;;;6.80;;
22318;SDS011;11327;52.334;9.506;2023-11-21T15:53:55;8.65;;;6.08;;
22318;SDS011;11327;52.334;9.506;2023-11-21T15:57:15;9.20;;;6.22;;
22318;SDS011;11327;52.334;9.506;2023-11-21T16:00:37;8.08;;;6.53;;
22318;SDS011;11327;52.334;9.506;2023-11-21T16:03:58;7.47;;;6.40;;
22318;SDS011;11327;52.334;9.506;2023-11-21T16:07:20;7.72;;;5.65;;
22318;SDS011;11327;52.334;9.506;2023-11-21T16:10:41;7.22;;;5.85;;
22318;SDS011;11327;52.334;9.506;2023-11-21T16:14:02;7.42;;;5.85;;
22318;SDS011;11327;52.334;9.506;2023-11-21T16:17:23;7.40;;;5.62;;
22318;SDS011;11327;52.334;9.506;2023-11-21T16:20:43;7.78;;;5.95;;
22318;SDS011;11327;52.334;9.506;2023-11-21T16:24:04;6.60;;;5.35;;
22318;SDS011;11327;52.334;9.506;2023-11-21T16:27:26;6.87;;;5.15;;
22318;SDS011;11327;52.334;9.506;2023-11-21T16:30:47;6.37;;;5.10;;
22318;SDS011;11327;52.334;9.506;2023-11-21T16:34:11;8.85;;;5.78;;
22318;SDS011;11327;52.334;9.506;2023-11-21T16:37:36;9.28;;;6.37;;
22318;SDS011;11327;52.334;9.506;2023-11-21T16:40:57;7.70;;;5.80;;
22318;SDS011;11327;52.334;9.506;2023-11-21T16:44:18;9.53;;;6.22;;
22318;SDS011;11327;52.334;9.506;2023-11-21T16:47:42;7.90;;;6.08;;
22318;SDS011;11327;52.334;9.506;2023-11-21T16:51:03;7.78;;;6.15;;
22318;SDS011;11327;52.334;9.506;2023-11-21T16:54:24;8.80;;;7.10;;
22318;SDS011;11327;52.334;9.506;2023-11-21T16:57:44;7.17;;;5.58;;
22318;SDS011;11327;52.334;9.506;2023-11-21T17:01:05;8.30;;;5.53;;
22318;SDS011;11327;52.334;9.506;2023-11-21T17:04:28;8.48;;;6.30;;
22318;SDS011;11327;52.334;9.506;2023-11-21T17:07:48;9.23;;;6.37;;
22318;SDS011;11327;52.334;9.506;2023-11-21T17:11:09;8.40;;;5.72;;
22318;SDS011;11327;52.334;9.506;2023-11-21T17:14:32;8.08;;;5.50;;
22318;SDS011;11327;52.334;9.506;2023-11-21T17:17:54;7.75;;;5.67;;
22318;SDS011;11327;52.334;9.506;2023-11-21T17:21:15;7.95;;;5.78;;
22318;SDS011;11327;52.334;9.506;2023-11-21T17:24:37;15.00;;;11.12;;
22318;SDS011;11327;52.334;9.506;2023-11-21T17:27:57;9.05;;;7.25;;
22318;SDS011;11327;52.334;9.506;2023-11-21T17:31:18;8.75;;;7.00;;
22318;SDS011;11327;52.334;9.506;2023-11-21T17:34:39;9.40;;;7.55;;
22318;SDS011;11327;52.334;9.506;2023-11-21T17:38:00;7.33;;;5.78;;
22318;SDS011;11327;52.334;9.506;2023-11-21T17:41:21;10.30;;;7.08;;
22318;SDS011;11327;52.334;9.506;2023-11-21T17:44:42;8.98;;;6.97;;
22318;SDS011;11327;52.334;9.506;2023-11-21T17:48:03;7.05;;;5.85;;
22318;SDS011;11327;52.334;9.506;2023-11-21T17:51:24;7.15;;;5.33;;
22318;SDS011;11327;52.334;9.506;2023-11-21T17:54:46;7.03;;;5.47;;
22318;SDS011;11327;52.334;9.506;2023-11-21T17:58:09;8.58;;;6.08;;
22318;SDS011;11327;52.334;9.506;2023-11-21T18:01:34;6.37;;;5.40;;
22318;SDS011;11327;52.334;9.506;2023-11-21T18:04:57;6.65;;;5.28;;
22318;SDS011;11327;52.334;9.506;2023-11-21T18:08:20;9.10;;;5.35;;
22318;SDS011;11327;52.334;9.506;2023-11-21T18:11:41;8.40;;;5.92;;
22318;SDS011;11327;52.334;9.506;2023-11-21T18:15:02;7.78;;;5.90;;
22318;SDS011;11327;52.334;9.506;2023-11-21T18:18:23;8.15;;;5.72;;
22318;SDS011;11327;52.334;9.506;2023-11-21T18:21:46;8.38;;;5.33;;
22318;SDS011;11327;52.334;9.506;2023-11-21T18:25:07;6.22;;;5.05;;
22318;SDS011;11327;52.334;9.506;2023-11-21T18:28:28;6.28;;;4.92;;
22318;SDS011;11327;52.334;9.506;2023-11-21T18:31:48;6.90;;;4.97;;
22318;SDS011;11327;52.334;9.506;2023-11-21T18:35:09;6.40;;;4.85;;
22318;SDS011;11327;52.334;9.506;2023-11-21T18:38:30;6.33;;;5.03;;
22318;SDS011;11327;52.334;9.506;2023-11-21T18:41:51;6.15;;;5.25;;
22318;SDS011;11327;52.334;9.506;2023-11-21T18:45:12;6.28;;;5.33;;
22318;SDS011;11327;52.334;9.506;2023-11-21T18:48:33;7.40;;;5.78;;
22318;SDS011;11327;52.334;9.506;2023-11-21T18:51:53;7.40;;;5.70;;
22318;SDS011;11327;52.334;9.506;2023-11-21T18:55:14;9.68;;;7.20;;
22318;SDS011;11327;52.334;9.506;2023-11-21T18:58:35;7.58;;;6.60;;
22318;SDS011;11327;52.334;9.506;2023-11-21T19:01:56;7.62;;;6.08;;
22318;SDS011;11327;52.334;9.506;2023-11-21T19:05:19;7.90;;;6.10;;
22318;SDS011;11327;52.334;9.506;2023-11-21T19:08:40;7.67;;;5.53;;
22318;SDS011;11327;52.334;9.506;2023-11-21T19:12:02;6.90;;;5.83;;
22318;SDS011;11327;52.334;9.506;2023-11-21T19:15:23;9.30;;;8.00;;
22318;SDS011;11327;52.334;9.506;2023-11-21T19:18:45;7.92;;;6.50;;
22318;SDS011;11327;52.334;9.506;2023-11-21T19:22:06;8.08;;;6.00;;
22318;SDS011;11327;52.334;9.506;2023-11-21T19:25:28;7.08;;;5.90;;
22318;SDS011;11327;52.334;9.506;2023-11-21T19:28:49;8.23;;;6.40;;
22318;SDS011;11327;52.334;9.506;2023-11-21T19:32:10;9.00;;;6.95;;
22318;SDS011;11327;52.334;9.506;2023-11-21T19:35:31;10.63;;;8.33;;
22318;SDS011;11327;52.334;9.506;2023-11-21T19:38:53;9.05;;;6.53;;
22318;SDS011;11327;52.334;9.506;2023-11-21T19:42:14;8.50;;;6.28;;
22318;SDS011;11327;52.334;9.506;2023-11-21T19:45:35;8.23;;;6.22;;
22318;SDS011;11327;52.334;9.506;2023-11-21T19:48:55;9.90;;;6.62;;
22318;SDS011;11327;52.334;9.506;2023-11-21T19:52:16;8.73;;;6.15;;
22318;SDS011;11327;52.334;9.506;2023-11-21T19:55:37;7.45;;;5.50;;
22318;SDS011;11327;52.334;9.506;2023-11-21T19:58:58;8.98;;;5.97;;
22318;SDS011;11327;52.334;9.506;2023-11-21T20:02:19;6.90;;;5.47;;
22318;SDS011;11327;52.334;9.506;2023-11-21T20:05:39;7.55;;;4.95;;
22318;SDS011;11327;52.334;9.506;2023-11-21T20:09:00;9.20;;;5.42;;
22318;SDS011;11327;52.334;9.506;2023-11-21T20:12:23;7.53;;;5.72;;
22318;SDS011;11327;52.334;9.506;2023-11-21T20:15:43;8.53;;;6.15;;